Time,TemperatureF,DewpointF,PressureIn,WindDirection,WindDirectionDegrees,WindSpeedMPH,WindSpeedGustMPH,Humidity,HourlyPrecipIn,Conditions,Clouds,dailyrainin,SoftwareType,DateUTC
2013-11-20 00:01:00,40.1,17.1,30.24,SSE,158,0.0,0.0,39,0.00,,CLR,0.00,VWS V14.01,2013-11-20 05:01:00,
2013-11-20 00:02:00,40.1,17.1,30.24,SSE,158,0.0,0.0,39,0.00,,CLR,0.00,VWS V14.01,2013-11-20 05:02:00,
2013-11-20 00:03:00,39.9,17.6,30.24,SSE,158,0.0,0.0,40,0.00,,CLR,0.00,VWS V14.01,2013-11-20 05:03:00,
2013-11-20 00:08:00,39.7,18.0,30.24,SSE,158,0.0,0.0,41,0.00,,CLR,0.00,VWS V14.01,2013-11-20 05:08:00,
2013-11-20 00:13:00,39.7,17.4,30.24,SSE,158,0.0,0.0,40,0.00,,CLR,0.00,VWS V14.01,2013-11-20 05:13:00,
2013-11-20 00:18:00,39.6,17.2,30.24,SSE,158,0.0,0.0,40,0.00,,CLR,0.00,VWS V14.01,2013-11-20 05:18:00,
2013-11-20 00:23:00,39.6,17.2,30.27,SSE,158,0.0,0.0,40,0.00,,CLR,0.00,VWS V14.01,2013-11-20 05:23:00,
2013-11-20 00:29:00,39.7,17.4,30.27,SSE,158,0.0,0.0,40,0.00,,CLR,0.00,VWS V14.01,2013-11-20 05:29:00,
2013-11-20 00:34:00,40.3,17.9,30.27,SSE,158,0.0,0.0,40,0.00,,CLR,0.00,VWS V14.01,2013-11-20 05:34:00,
2013-11-20 00:39:00,40.5,18.1,30.27,SSE,158,0.0,0.0,40,0.00,,CLR,0.00,VWS V14.01,2013-11-20 05:39:00,
2013-11-20 00:44:00,40.8,18.4,30.27,SSE,158,3.1,3.1,40,0.00,,CLR,0.00,VWS V14.01,2013-11-20 05:44:00,
2013-11-20 00:49:00,41.0,18.0,30.27,NE,45,0.0,0.0,39,0.00,,CLR,0.00,VWS V14.01,2013-11-20 05:49:00,
2013-11-20 00:54:00,41.2,17.5,30.27,NE,45,2.7,2.7,38,0.00,,CLR,0.00,VWS V14.01,2013-11-20 05:54:00,
2013-11-20 00:59:00,41.4,17.7,30.27,NE,45,0.0,0.0,38,0.00,,CLR,0.00,VWS V14.01,2013-11-20 05:59:00,
2013-11-20 01:04:00,41.7,16.8,30.27,NE,45,3.1,3.1,36,0.00,,CLR,0.00,VWS V14.01,2013-11-20 06:04:00,
2013-11-20 01:09:00,41.9,17.5,30.27,NE,45,0.0,0.0,37,0.00,,CLR,0.00,VWS V14.01,2013-11-20 06:09:00,
2013-11-20 01:14:00,41.5,17.2,30.27,NE,45,0.0,0.0,37,0.00,,CLR,0.00,VWS V14.01,2013-11-20 06:14:00,
2013-11-20 01:19:00,41.5,16.6,30.27,NE,45,0.0,2.7,36,0.00,,CLR,0.00,VWS V14.01,2013-11-20 06:19:00,
2013-11-20 01:24:00,41.5,16.6,30.27,NE,45,0.0,0.0,36,0.00,,CLR,0.00,VWS V14.01,2013-11-20 06:24:00,
2013-11-20 01:29:00,41.2,16.3,30.27,NE,45,0.0,0.0,36,0.00,,CLR,0.00,VWS V14.01,2013-11-20 06:29:00,
2013-11-20 01:34:00,40.8,17.2,30.27,NE,45,0.0,0.0,38,0.00,,CLR,0.00,VWS V14.01,2013-11-20 06:34:00,
2013-11-20 01:39:00,40.5,16.9,30.27,NE,45,2.2,2.2,38,0.00,,CLR,0.00,VWS V14.01,2013-11-20 06:39:00,
2013-11-20 01:44:00,40.1,17.1,30.27,NE,45,0.0,0.0,39,0.00,,CLR,0.00,VWS V14.01,2013-11-20 06:44:00,
2013-11-20 01:49:00,39.6,16.7,30.27,NE,45,0.0,0.0,39,0.00,,CLR,0.00,VWS V14.01,2013-11-20 06:49:00,
2013-11-20 01:54:00,39.4,16.5,30.27,NE,45,0.0,0.0,39,0.00,,CLR,0.00,VWS V14.01,2013-11-20 06:54:00,
2013-11-20 01:59:00,39.2,16.3,30.27,NE,45,0.0,0.0,39,0.00,,CLR,0.00,VWS V14.01,2013-11-20 06:59:00,
2013-11-20 02:04:00,38.8,16.6,30.27,NE,45,0.0,0.0,40,0.00,,CLR,0.00,VWS V14.01,2013-11-20 07:04:00,
2013-11-20 02:09:00,38.7,16.4,30.27,NE,45,0.0,0.0,40,0.00,,CLR,0.00,VWS V14.01,2013-11-20 07:09:00,
2013-11-20 02:14:00,38.8,17.2,30.27,NE,45,0.0,0.0,41,0.00,,CLR,0.00,VWS V14.01,2013-11-20 07:14:00,
2013-11-20 02:19:00,38.8,17.2,30.27,NE,45,0.0,0.0,41,0.00,,CLR,0.00,VWS V14.01,2013-11-20 07:19:00,
2013-11-20 02:24:00,38.7,17.0,30.27,NE,45,0.0,0.0,41,0.00,,CLR,0.00,VWS V14.01,2013-11-20 07:24:00,
2013-11-20 02:29:00,38.7,17.6,30.27,NE,45,0.0,0.0,42,0.00,,CLR,0.00,VWS V14.01,2013-11-20 07:29:00,
2013-11-20 02:34:00,38.5,17.4,30.27,NE,45,0.0,0.0,42,0.00,,CLR,0.00,VWS V14.01,2013-11-20 07:34:00,
2013-11-20 02:39:00,38.5,17.4,30.30,NE,45,0.0,0.0,42,0.00,,CLR,0.00,VWS V14.01,2013-11-20 07:39:00,
2013-11-20 02:44:00,38.1,17.1,30.30,NE,45,0.0,0.0,42,0.00,,CLR,0.00,VWS V14.01,2013-11-20 07:44:00,
2013-11-20 02:49:00,37.9,16.9,30.30,NE,45,0.0,0.0,42,0.00,,CLR,0.00,VWS V14.01,2013-11-20 07:49:00,
2013-11-20 02:54:00,37.6,16.6,30.30,NE,45,0.0,0.0,42,0.00,,CLR,0.00,VWS V14.01,2013-11-20 07:54:00,
2013-11-20 02:59:00,37.4,17.0,30.30,NE,45,0.0,0.0,43,0.00,,CLR,0.00,VWS V14.01,2013-11-20 07:59:00,
2013-11-20 03:04:00,37.2,17.3,30.30,NE,45,0.0,0.0,44,0.00,,CLR,0.00,VWS V14.01,2013-11-20 08:04:00,
2013-11-20 03:09:00,37.0,18.2,30.30,NE,45,0.0,0.0,46,0.00,,CLR,0.00,VWS V14.01,2013-11-20 08:09:00,
2013-11-20 03:14:00,37.0,18.2,30.30,NE,45,0.0,0.0,46,0.00,,CLR,0.00,VWS V14.01,2013-11-20 08:14:00,
2013-11-20 03:19:00,37.2,18.4,30.30,NE,45,0.0,0.0,46,0.00,,CLR,0.00,VWS V14.01,2013-11-20 08:19:00,
2013-11-20 03:24:00,37.6,18.2,30.30,NE,45,0.0,0.0,45,0.00,,CLR,0.00,VWS V14.01,2013-11-20 08:24:00,
2013-11-20 03:29:00,37.8,18.3,30.30,NE,45,0.0,0.0,45,0.00,,CLR,0.00,VWS V14.01,2013-11-20 08:29:00,
2013-11-20 03:34:00,38.1,18.1,30.30,NE,45,0.0,0.0,44,0.00,,CLR,0.00,VWS V14.01,2013-11-20 08:34:00,
2013-11-20 03:39:00,38.3,18.3,30.30,NE,45,0.0,0.0,44,0.00,,CLR,0.00,VWS V14.01,2013-11-20 08:39:00,
2013-11-20 03:44:00,37.9,18.5,30.30,NE,45,0.0,0.0,45,0.00,,CLR,0.00,VWS V14.01,2013-11-20 08:44:00,
2013-11-20 03:49:00,38.1,18.1,30.30,NNE,22,2.7,3.1,44,0.00,,CLR,0.00,VWS V14.01,2013-11-20 08:49:00,
2013-11-20 03:54:00,38.5,17.4,30.30,ENE,68,0.0,2.7,42,0.00,,CLR,0.00,VWS V14.01,2013-11-20 08:54:00,
2013-11-20 03:59:00,38.5,17.4,30.30,ENE,68,0.0,0.0,42,0.00,,CLR,0.00,VWS V14.01,2013-11-20 08:59:00,
2013-11-20 04:04:00,38.5,17.4,30.30,ENE,68,0.0,0.0,42,0.00,,CLR,0.00,VWS V14.01,2013-11-20 09:04:00,
2013-11-20 04:09:00,38.3,17.2,30.30,ENE,68,0.0,0.0,42,0.00,,CLR,0.00,VWS V14.01,2013-11-20 09:09:00,
2013-11-20 04:14:00,38.1,17.1,30.30,ENE,68,0.0,0.0,42,0.00,,CLR,0.00,VWS V14.01,2013-11-20 09:14:00,
2013-11-20 04:19:00,37.6,17.1,30.30,ENE,68,0.0,0.0,43,0.00,,CLR,0.00,VWS V14.01,2013-11-20 09:19:00,
2013-11-20 04:24:00,37.2,17.3,30.33,ENE,68,0.0,0.0,44,0.00,,CLR,0.00,VWS V14.01,2013-11-20 09:24:00,
2013-11-20 04:29:00,36.9,18.0,30.33,ENE,68,0.0,0.0,46,0.00,,CLR,0.00,VWS V14.01,2013-11-20 09:29:00,
2013-11-20 04:34:00,36.5,18.2,30.33,ENE,68,0.0,0.0,47,0.00,,CLR,0.00,VWS V14.01,2013-11-20 09:34:00,
2013-11-20 04:39:00,36.5,18.2,30.33,ENE,68,0.0,0.0,47,0.00,,CLR,0.00,VWS V14.01,2013-11-20 09:39:00,
2013-11-20 04:44:00,36.3,18.0,30.33,ENE,68,2.2,2.2,47,0.00,,CLR,0.00,VWS V14.01,2013-11-20 09:44:00,
2013-11-20 04:49:00,36.1,18.4,30.33,ENE,68,0.0,0.0,48,0.00,,CLR,0.00,VWS V14.01,2013-11-20 09:49:00,
2013-11-20 04:54:00,35.8,18.0,30.33,ENE,68,2.2,2.2,48,0.00,,CLR,0.00,VWS V14.01,2013-11-20 09:54:00,
2013-11-20 04:59:00,35.8,18.5,30.33,ENE,68,0.0,0.0,49,0.00,,CLR,0.00,VWS V14.01,2013-11-20 09:59:00,
2013-11-20 05:04:00,35.8,18.5,30.33,ENE,68,0.0,0.0,49,0.00,,CLR,0.00,VWS V14.01,2013-11-20 10:04:00,
2013-11-20 05:09:00,35.8,18.5,30.33,ENE,68,0.0,0.0,49,0.00,,CLR,0.00,VWS V14.01,2013-11-20 10:09:00,
2013-11-20 05:14:00,35.8,19.0,30.33,ENE,68,0.0,0.0,50,0.00,,CLR,0.00,VWS V14.01,2013-11-20 10:14:00,
2013-11-20 05:19:00,35.4,18.6,30.33,ENE,68,0.0,0.0,50,0.00,,CLR,0.00,VWS V14.01,2013-11-20 10:19:00,
2013-11-20 05:24:00,34.9,18.6,30.33,ENE,68,0.0,0.0,51,0.00,,CLR,0.00,VWS V14.01,2013-11-20 10:24:00,
2013-11-20 05:29:00,34.3,18.1,30.33,ENE,68,0.0,0.0,51,0.00,,CLR,0.00,VWS V14.01,2013-11-20 10:29:00,
2013-11-20 05:34:00,34.2,18.4,30.33,ENE,68,0.0,0.0,52,0.00,,CLR,0.00,VWS V14.01,2013-11-20 10:34:00,
2013-11-20 05:39:00,33.8,18.5,30.33,ENE,68,0.0,0.0,53,0.00,,CLR,0.00,VWS V14.01,2013-11-20 10:39:00,
2013-11-20 05:44:00,33.4,19.0,30.33,ENE,68,0.0,0.0,55,0.00,,CLR,0.00,VWS V14.01,2013-11-20 10:44:00,
2013-11-20 05:49:00,33.3,18.9,30.33,ENE,68,0.0,0.0,55,0.00,,CLR,0.00,VWS V14.01,2013-11-20 10:49:00,
2013-11-20 05:54:00,32.9,18.9,30.33,ENE,68,0.0,0.0,56,0.00,,CLR,0.00,VWS V14.01,2013-11-20 10:54:00,
2013-11-20 05:59:00,32.7,19.2,30.33,ENE,68,0.0,0.0,57,0.00,,CLR,0.00,VWS V14.01,2013-11-20 10:59:00,
2013-11-20 06:04:00,32.4,19.2,30.33,ENE,68,0.0,0.0,58,0.00,,CLR,0.00,VWS V14.01,2013-11-20 11:04:00,
2013-11-20 06:09:00,32.4,19.6,30.33,ENE,68,0.0,0.0,59,0.00,,CLR,0.00,VWS V14.01,2013-11-20 11:09:00,
2013-11-20 06:14:00,32.2,19.9,30.33,ENE,68,0.0,0.0,60,0.00,,CLR,0.00,VWS V14.01,2013-11-20 11:14:00,
2013-11-20 06:19:00,32.2,20.3,30.33,ENE,68,0.0,0.0,61,0.00,,CLR,0.00,VWS V14.01,2013-11-20 11:19:00,
2013-11-20 06:24:00,31.6,19.8,30.36,ENE,68,0.0,0.0,61,0.00,,CLR,0.00,VWS V14.01,2013-11-20 11:24:00,
2013-11-20 06:29:00,31.3,20.2,30.36,ENE,68,0.0,0.0,63,0.00,,CLR,0.00,VWS V14.01,2013-11-20 11:29:00,
2013-11-20 06:34:00,31.5,20.7,30.36,ENE,68,0.0,0.0,64,0.00,,CLR,0.00,VWS V14.01,2013-11-20 11:34:00,
2013-11-20 06:39:00,31.5,20.7,30.36,ENE,68,0.0,0.0,64,0.00,,CLR,0.00,VWS V14.01,2013-11-20 11:39:00,
2013-11-20 06:44:00,31.3,20.9,30.36,ENE,68,0.0,0.0,65,0.00,,CLR,0.00,VWS V14.01,2013-11-20 11:44:00,
2013-11-20 06:49:00,30.9,20.5,30.36,ENE,68,0.0,0.0,65,0.00,,CLR,0.00,VWS V14.01,2013-11-20 11:49:00,
2013-11-20 06:54:00,30.6,20.2,30.36,ENE,68,0.0,0.0,65,0.00,,CLR,0.00,VWS V14.01,2013-11-20 11:54:00,
2013-11-20 06:59:00,30.7,21.1,30.36,ENE,68,0.0,0.0,67,0.00,,CLR,0.00,VWS V14.01,2013-11-20 11:59:00,
2013-11-20 07:04:00,30.4,21.1,30.36,ENE,68,0.0,0.0,68,0.00,,CLR,0.00,VWS V14.01,2013-11-20 12:04:00,
2013-11-20 07:09:00,30.2,21.3,30.36,ENE,68,0.0,0.0,69,0.00,,CLR,0.00,VWS V14.01,2013-11-20 12:09:00,
2013-11-20 07:14:00,30.2,21.6,30.36,ENE,68,0.0,0.0,70,0.00,,CLR,0.00,VWS V14.01,2013-11-20 12:14:00,
2013-11-20 07:19:00,29.8,21.6,30.36,ENE,68,0.0,0.0,71,0.00,,CLR,0.00,VWS V14.01,2013-11-20 12:19:00,
2013-11-20 07:24:00,30.2,22.3,30.39,ENE,68,0.0,0.0,72,0.00,,CLR,0.00,VWS V14.01,2013-11-20 12:24:00,
2013-11-20 07:29:00,30.7,22.8,30.39,ENE,68,0.0,0.0,72,0.00,,CLR,0.00,VWS V14.01,2013-11-20 12:29:00,
2013-11-20 07:34:00,31.1,22.8,30.39,ENE,68,0.0,0.0,71,0.00,,CLR,0.00,VWS V14.01,2013-11-20 12:34:00,
2013-11-20 07:39:00,30.9,22.6,30.39,ENE,68,0.0,0.0,71,0.00,,CLR,0.00,VWS V14.01,2013-11-20 12:39:00,
2013-11-20 07:44:00,30.9,22.6,30.39,ENE,68,0.0,0.0,71,0.00,,CLR,0.00,VWS V14.01,2013-11-20 12:44:00,
2013-11-20 07:49:00,31.1,22.8,30.39,ENE,68,0.0,0.0,71,0.00,,CLR,0.00,VWS V14.01,2013-11-20 12:49:00,
2013-11-20 07:54:00,31.1,22.8,30.39,ENE,68,0.0,0.0,71,0.00,,CLR,0.00,VWS V14.01,2013-11-20 12:54:00,
2013-11-20 07:59:00,31.6,23.3,30.39,ENE,68,0.0,0.0,71,0.00,,CLR,0.00,VWS V14.01,2013-11-20 12:59:00,
2013-11-20 08:04:00,32.7,24.4,30.39,ENE,68,0.0,0.0,71,0.00,,CLR,0.00,VWS V14.01,2013-11-20 13:04:00,
2013-11-20 08:09:00,34.0,24.5,30.39,ENE,68,0.0,3.1,68,0.00,,CLR,0.00,VWS V14.01,2013-11-20 13:09:00,
2013-11-20 08:14:00,35.2,23.1,30.39,ENE,68,3.1,3.1,61,0.00,,CLR,0.00,VWS V14.01,2013-11-20 13:14:00,
2013-11-20 08:19:00,36.3,21.7,30.39,NE,45,3.6,3.6,55,0.00,,CLR,0.00,VWS V14.01,2013-11-20 13:19:00,
2013-11-20 08:24:00,36.7,20.7,30.39,NNE,22,3.1,3.1,52,0.00,,CLR,0.00,VWS V14.01,2013-11-20 13:24:00,
2013-11-20 08:29:00,37.2,20.3,30.39,NNE,22,3.1,3.6,50,0.00,,CLR,0.00,VWS V14.01,2013-11-20 13:29:00,
2013-11-20 08:34:00,37.8,19.9,30.39,ENE,68,4.0,4.0,48,0.00,,CLR,0.00,VWS V14.01,2013-11-20 13:34:00,
2013-11-20 08:39:00,38.5,19.0,30.39,ENE,68,2.7,4.0,45,0.00,,CLR,0.00,VWS V14.01,2013-11-20 13:39:00,
2013-11-20 08:44:00,39.2,18.6,30.39,NE,45,4.0,4.0,43,0.00,,CLR,0.00,VWS V14.01,2013-11-20 13:44:00,
2013-11-20 08:49:00,39.4,18.2,30.39,NNE,22,3.1,3.6,42,0.00,,CLR,0.00,VWS V14.01,2013-11-20 13:49:00,
2013-11-20 08:54:00,39.4,18.2,30.39,NNE,22,2.7,3.1,42,0.00,,CLR,0.00,VWS V14.01,2013-11-20 13:54:00,
2013-11-20 08:59:00,39.4,17.7,30.39,ENE,68,3.1,3.1,41,0.00,,CLR,0.00,VWS V14.01,2013-11-20 13:59:00,
2013-11-20 09:04:00,39.4,17.1,30.39,NE,45,3.1,3.1,40,0.00,,CLR,0.00,VWS V14.01,2013-11-20 14:04:00,
2013-11-20 09:09:00,39.6,17.2,30.39,NNE,22,2.7,5.4,40,0.00,,CLR,0.00,VWS V14.01,2013-11-20 14:09:00,
2013-11-20 09:14:00,39.9,17.6,30.39,NNE,22,2.2,3.6,40,0.00,,CLR,0.00,VWS V14.01,2013-11-20 14:14:00,
2013-11-20 09:19:00,40.1,17.7,30.39,SSE,158,0.0,2.2,40,0.00,,CLR,0.00,VWS V14.01,2013-11-20 14:19:00,
2013-11-20 09:24:00,40.6,17.6,30.41,ESE,112,2.2,2.7,39,0.00,,CLR,0.00,VWS V14.01,2013-11-20 14:24:00,
2013-11-20 09:29:00,41.5,17.8,30.41,ESE,112,2.2,3.1,38,0.00,,CLR,0.00,VWS V14.01,2013-11-20 14:29:00,
2013-11-20 09:34:00,42.4,17.4,30.41,ENE,68,2.7,3.1,36,0.00,,CLR,0.00,VWS V14.01,2013-11-20 14:34:00,
2013-11-20 09:39:00,43.3,18.2,30.41,SSE,158,0.0,2.7,36,0.00,,CLR,0.00,VWS V14.01,2013-11-20 14:39:00,
2013-11-20 09:44:00,43.5,17.0,30.41,NNE,22,3.1,3.6,34,0.00,,CLR,0.00,VWS V14.01,2013-11-20 14:44:00,
2013-11-20 09:49:00,43.5,16.3,30.41,SSE,158,3.1,3.1,33,0.00,,CLR,0.00,VWS V14.01,2013-11-20 14:49:00,
2013-11-20 09:54:00,44.6,16.6,30.41,NNE,22,6.3,6.3,32,0.00,,CLR,0.00,VWS V14.01,2013-11-20 14:54:00,
2013-11-20 09:59:00,44.6,15.9,30.41,North,0,2.7,4.0,31,0.00,,CLR,0.00,VWS V14.01,2013-11-20 14:59:00,
2013-11-20 10:04:00,45.1,16.3,30.41,NNE,22,2.7,3.1,31,0.00,,CLR,0.00,VWS V14.01,2013-11-20 15:04:00,
2013-11-20 10:09:00,46.6,16.8,30.41,NNE,22,0.0,2.7,30,0.00,,CLR,0.00,VWS V14.01,2013-11-20 15:09:00,
2013-11-20 10:15:00,46.8,16.2,30.41,NE,45,2.7,4.0,29,0.00,,CLR,0.00,VWS V14.01,2013-11-20 15:15:00,
2013-11-20 10:20:00,46.6,16.0,30.41,NNE,22,3.6,3.6,29,0.00,,CLR,0.00,VWS V14.01,2013-11-20 15:20:00,
2013-11-20 10:25:00,47.1,16.5,30.41,ESE,112,2.7,2.7,29,0.00,,CLR,0.00,VWS V14.01,2013-11-20 15:25:00,
2013-11-20 10:30:00,48.0,17.3,30.41,NNE,22,4.9,4.9,29,0.00,,CLR,0.00,VWS V14.01,2013-11-20 15:30:00,
2013-11-20 10:35:00,48.0,17.3,30.41,NNE,22,2.7,3.1,29,0.00,,CLR,0.00,VWS V14.01,2013-11-20 15:35:00,
2013-11-20 10:40:00,47.3,16.7,30.41,NNE,22,2.2,4.0,29,0.00,,CLR,0.00,VWS V14.01,2013-11-20 15:40:00,
2013-11-20 10:45:00,48.2,16.6,30.41,ENE,68,2.7,3.1,28,0.00,,CLR,0.00,VWS V14.01,2013-11-20 15:45:00,
2013-11-20 10:50:00,48.2,16.6,30.41,NNE,22,4.0,4.9,28,0.00,,CLR,0.00,VWS V14.01,2013-11-20 15:50:00,
2013-11-20 10:55:00,47.3,15.9,30.39,NNE,22,4.0,4.0,28,0.00,,CLR,0.00,VWS V14.01,2013-11-20 15:55:00,
2013-11-20 11:00:00,48.4,16.8,30.39,NNE,22,0.0,2.2,28,0.00,,CLR,0.00,VWS V14.01,2013-11-20 16:00:00,
2013-11-20 11:05:00,49.3,17.6,30.39,ESE,112,2.7,2.7,28,0.00,,CLR,0.00,VWS V14.01,2013-11-20 16:05:00,
2013-11-20 11:10:00,50.4,17.7,30.39,East,90,2.2,3.6,27,0.00,,CLR,0.00,VWS V14.01,2013-11-20 16:10:00,
2013-11-20 11:15:00,49.5,16.9,30.39,NE,45,3.1,4.0,27,0.00,,CLR,0.00,VWS V14.01,2013-11-20 16:15:00,
2013-11-20 11:20:00,49.1,16.6,30.39,NNE,22,2.2,2.2,27,0.00,,CLR,0.00,VWS V14.01,2013-11-20 16:20:00,
2013-11-20 11:25:00,50.4,17.7,30.39,East,90,2.7,4.0,27,0.00,,CLR,0.00,VWS V14.01,2013-11-20 16:25:00,
2013-11-20 11:30:00,51.1,18.3,30.39,SE,135,0.0,4.0,27,0.00,,CLR,0.00,VWS V14.01,2013-11-20 16:30:00,
2013-11-20 11:35:00,51.1,17.4,30.39,NNE,22,3.6,4.9,26,0.00,,CLR,0.00,VWS V14.01,2013-11-20 16:35:00,
2013-11-20 11:40:00,50.4,16.8,30.36,NNE,22,0.0,2.2,26,0.00,,CLR,0.00,VWS V14.01,2013-11-20 16:40:00,
2013-11-20 11:45:00,52.3,18.5,30.36,NNE,22,0.0,0.0,26,0.00,,CLR,0.00,VWS V14.01,2013-11-20 16:45:00,
2013-11-20 11:50:00,51.8,18.0,30.36,ENE,68,0.0,3.1,26,0.00,,CLR,0.00,VWS V14.01,2013-11-20 16:50:00,
2013-11-20 11:55:00,52.7,18.8,30.36,South,180,2.7,3.1,26,0.00,,CLR,0.00,VWS V14.01,2013-11-20 16:55:00,
2013-11-20 12:00:00,51.4,17.7,30.36,ENE,68,3.6,4.0,26,0.00,,CLR,0.00,VWS V14.01,2013-11-20 17:00:00,
2013-11-20 12:05:00,52.0,18.2,30.36,ENE,68,2.2,3.1,26,0.00,,CLR,0.00,VWS V14.01,2013-11-20 17:05:00,
2013-11-20 12:10:00,51.8,18.0,30.36,ENE,68,3.1,3.1,26,0.00,,CLR,0.00,VWS V14.01,2013-11-20 17:10:00,
2013-11-20 12:15:00,52.2,18.3,30.36,North,0,3.1,3.6,26,0.00,,CLR,0.00,VWS V14.01,2013-11-20 17:15:00,
2013-11-20 12:20:00,52.2,18.3,30.36,SSW,202,2.2,2.2,26,0.00,,CLR,0.00,VWS V14.01,2013-11-20 17:20:00,
2013-11-20 12:25:00,52.9,19.0,30.36,SE,135,3.1,3.1,26,0.00,,CLR,0.00,VWS V14.01,2013-11-20 17:25:00,
2013-11-20 12:30:00,53.6,18.6,30.36,SSE,158,6.3,6.3,25,0.00,,CLR,0.00,VWS V14.01,2013-11-20 17:30:00,
2013-11-20 12:35:00,52.7,18.8,30.36,SE,135,4.0,4.0,26,0.00,,CLR,0.00,VWS V14.01,2013-11-20 17:35:00,
2013-11-20 12:40:00,51.6,17.9,30.33,ESE,112,0.0,4.9,26,0.00,,CLR,0.00,VWS V14.01,2013-11-20 17:40:00,
2013-11-20 12:45:00,52.9,19.0,30.33,SSE,158,7.6,7.6,26,0.00,,CLR,0.00,VWS V14.01,2013-11-20 17:45:00,
2013-11-20 12:50:00,51.8,18.0,30.33,ESE,112,2.7,4.0,26,0.00,,CLR,0.00,VWS V14.01,2013-11-20 17:50:00,
2013-11-20 12:55:00,52.5,15.8,30.33,SE,135,4.0,4.0,23,0.00,,CLR,0.00,VWS V14.01,2013-11-20 17:55:00,
2013-11-20 13:00:00,52.2,18.3,30.33,ESE,112,5.4,5.4,26,0.00,,CLR,0.00,VWS V14.01,2013-11-20 18:00:00,
2013-11-20 13:05:00,52.0,18.2,30.33,NNE,22,2.2,4.9,26,0.00,,CLR,0.00,VWS V14.01,2013-11-20 18:05:00,
2013-11-20 13:10:00,54.3,17.3,30.33,SSE,158,2.2,4.5,23,0.00,,CLR,0.00,VWS V14.01,2013-11-20 18:10:00,
2013-11-20 13:15:00,53.1,16.3,30.33,NNE,22,2.7,2.7,23,0.00,,CLR,0.00,VWS V14.01,2013-11-20 18:15:00,
2013-11-20 13:20:00,53.4,16.6,30.33,NNE,22,2.2,3.6,23,0.00,,CLR,0.00,VWS V14.01,2013-11-20 18:20:00,
2013-11-20 13:25:00,53.6,16.7,30.33,East,90,3.1,3.1,23,0.00,,CLR,0.00,VWS V14.01,2013-11-20 18:25:00,
2013-11-20 13:30:00,54.1,17.2,30.33,East,90,0.0,0.0,23,0.00,,CLR,0.00,VWS V14.01,2013-11-20 18:30:00,
2013-11-20 13:35:00,53.8,16.9,30.33,East,90,2.7,3.1,23,0.00,,CLR,0.00,VWS V14.01,2013-11-20 18:35:00,
2013-11-20 13:40:00,54.0,17.0,30.33,NE,45,2.7,2.7,23,0.00,,CLR,0.00,VWS V14.01,2013-11-20 18:40:00,
2013-11-20 13:45:00,54.5,17.5,30.33,ENE,68,0.0,3.1,23,0.00,,CLR,0.00,VWS V14.01,2013-11-20 18:45:00,
2013-11-20 13:50:00,54.7,17.6,30.33,ENE,68,2.7,3.6,23,0.00,,CLR,0.00,VWS V14.01,2013-11-20 18:50:00,
2013-11-20 13:55:00,55.0,17.9,30.30,ENE,68,2.7,2.7,23,0.00,,CLR,0.00,VWS V14.01,2013-11-20 18:55:00,
2013-11-20 14:00:00,55.4,17.2,30.30,SSE,158,3.6,3.6,22,0.00,,CLR,0.00,VWS V14.01,2013-11-20 19:00:00,
2013-11-20 14:05:00,55.0,17.9,30.30,SSW,202,3.1,4.0,23,0.00,,CLR,0.00,VWS V14.01,2013-11-20 19:05:00,
2013-11-20 14:10:00,54.3,17.3,30.30,ESE,112,3.1,3.1,23,0.00,,CLR,0.00,VWS V14.01,2013-11-20 19:10:00,
2013-11-20 14:15:00,55.8,17.5,30.30,SE,135,2.2,2.7,22,0.00,,CLR,0.00,VWS V14.01,2013-11-20 19:15:00,
2013-11-20 14:20:00,55.8,17.5,30.30,ENE,68,3.1,3.6,22,0.00,,CLR,0.00,VWS V14.01,2013-11-20 19:20:00,
2013-11-20 14:25:00,54.5,17.5,30.30,SSE,158,3.6,3.6,23,0.00,,CLR,0.00,VWS V14.01,2013-11-20 19:25:00,
2013-11-20 14:30:00,55.9,17.7,30.30,SSE,158,0.0,0.0,22,0.00,,CLR,0.00,VWS V14.01,2013-11-20 19:30:00,
2013-11-20 14:35:00,55.4,17.2,30.30,South,180,2.2,2.2,22,0.00,,CLR,0.00,VWS V14.01,2013-11-20 19:35:00,
2013-11-20 14:40:00,55.4,17.2,30.33,ENE,68,2.7,2.7,22,0.00,,CLR,0.00,VWS V14.01,2013-11-20 19:40:00,
2013-11-20 14:45:00,54.7,17.6,30.33,ESE,112,4.0,5.4,23,0.00,,CLR,0.00,VWS V14.01,2013-11-20 19:45:00,
2013-11-20 14:50:00,54.7,17.6,30.33,SSE,158,2.2,4.0,23,0.00,,CLR,0.00,VWS V14.01,2013-11-20 19:50:00,
2013-11-20 14:55:00,54.1,17.2,30.30,SSE,158,3.1,3.1,23,0.00,,CLR,0.00,VWS V14.01,2013-11-20 19:55:00,
2013-11-20 15:00:00,53.4,16.6,30.30,SSW,202,3.6,3.6,23,0.00,,CLR,0.00,VWS V14.01,2013-11-20 20:00:00,
2013-11-20 15:05:00,51.6,16.0,30.30,NE,45,4.9,4.9,24,0.00,,CLR,0.00,VWS V14.01,2013-11-20 20:05:00,
2013-11-20 15:10:00,52.0,15.4,30.33,SE,135,2.7,3.6,23,0.00,,CLR,0.00,VWS V14.01,2013-11-20 20:10:00,
2013-11-20 15:15:00,50.7,15.3,30.33,SSE,158,2.7,5.8,24,0.00,,CLR,0.00,VWS V14.01,2013-11-20 20:15:00,
2013-11-20 15:20:00,50.7,17.1,30.33,SE,135,2.2,2.7,26,0.00,,CLR,0.00,VWS V14.01,2013-11-20 20:20:00,
2013-11-20 15:25:00,51.1,17.4,30.33,SE,135,0.0,2.7,26,0.00,,CLR,0.00,VWS V14.01,2013-11-20 20:25:00,
2013-11-20 15:30:00,50.5,17.0,30.33,NNE,22,3.1,4.0,26,0.00,,CLR,0.00,VWS V14.01,2013-11-20 20:30:00,
2013-11-20 15:35:00,50.5,17.0,30.33,NNE,22,2.7,2.7,26,0.00,,CLR,0.00,VWS V14.01,2013-11-20 20:35:00,
2013-11-20 15:40:00,50.5,17.0,30.33,East,90,0.0,3.1,26,0.00,,CLR,0.00,VWS V14.01,2013-11-20 20:40:00,
2013-11-20 15:45:00,50.7,17.1,30.33,ENE,68,2.2,2.2,26,0.00,,CLR,0.00,VWS V14.01,2013-11-20 20:45:00,
2013-11-20 15:50:00,51.3,17.6,30.33,ENE,68,2.2,2.7,26,0.00,,CLR,0.00,VWS V14.01,2013-11-20 20:50:00,
2013-11-20 15:55:00,51.1,17.4,30.33,SE,135,2.2,2.7,26,0.00,,CLR,0.00,VWS V14.01,2013-11-20 20:55:00,
2013-11-20 16:00:00,51.3,17.6,30.33,SSE,158,2.7,5.4,26,0.00,,CLR,0.00,VWS V14.01,2013-11-20 21:00:00,
2013-11-20 16:05:00,50.7,17.1,30.33,East,90,4.0,4.0,26,0.00,,CLR,0.00,VWS V14.01,2013-11-20 21:05:00,
2013-11-20 16:10:00,50.9,17.2,30.30,ENE,68,2.2,2.7,26,0.00,,CLR,0.00,VWS V14.01,2013-11-20 21:10:00,
2013-11-20 16:15:00,50.5,17.0,30.30,SSE,158,3.1,3.1,26,0.00,,CLR,0.00,VWS V14.01,2013-11-20 21:15:00,
2013-11-20 16:20:00,50.7,17.1,30.30,ESE,112,0.0,0.0,26,0.00,,CLR,0.00,VWS V14.01,2013-11-20 21:20:00,
2013-11-20 16:25:00,50.7,17.1,30.33,NNE,22,3.6,3.6,26,0.00,,CLR,0.00,VWS V14.01,2013-11-20 21:25:00,
2013-11-20 16:30:00,50.0,17.4,30.33,NNE,22,2.7,2.7,27,0.00,,CLR,0.00,VWS V14.01,2013-11-20 21:30:00,
2013-11-20 16:35:00,49.1,17.4,30.33,NNE,22,2.7,2.7,28,0.00,,CLR,0.00,VWS V14.01,2013-11-20 21:35:00,
2013-11-20 16:41:00,48.6,17.0,30.33,NNE,22,0.0,0.0,28,0.00,,CLR,0.00,VWS V14.01,2013-11-20 21:41:00,
2013-11-20 16:46:00,48.0,17.3,30.33,NNE,22,0.0,2.2,29,0.00,,CLR,0.00,VWS V14.01,2013-11-20 21:46:00,
2013-11-20 16:51:00,47.7,17.0,30.33,NNE,22,0.0,0.0,29,0.00,,CLR,0.00,VWS V14.01,2013-11-20 21:51:00,
2013-11-20 16:56:00,47.3,17.5,30.33,NNE,22,0.0,0.0,30,0.00,,CLR,0.00,VWS V14.01,2013-11-20 21:56:00,
2013-11-20 17:01:00,46.8,17.7,30.33,NNE,22,0.0,0.0,31,0.00,,CLR,0.00,VWS V14.01,2013-11-20 22:01:00,
2013-11-20 17:06:00,46.2,17.3,30.33,NNE,22,0.0,0.0,31,0.00,,CLR,0.00,VWS V14.01,2013-11-20 22:06:00,
2013-11-20 17:11:00,45.5,17.4,30.33,NNE,22,0.0,0.0,32,0.00,,CLR,0.00,VWS V14.01,2013-11-20 22:11:00,
2013-11-20 17:16:00,45.0,18.3,30.33,NNE,22,0.0,0.0,34,0.00,,CLR,0.00,VWS V14.01,2013-11-20 22:16:00,
2013-11-20 17:21:00,44.4,18.5,30.33,NNE,22,0.0,0.0,35,0.00,,CLR,0.00,VWS V14.01,2013-11-20 22:21:00,
2013-11-20 17:26:00,43.7,17.9,30.33,NNE,22,0.0,0.0,35,0.00,,CLR,0.00,VWS V14.01,2013-11-20 22:26:00,
2013-11-20 17:31:00,42.6,18.8,30.33,NNE,22,0.0,0.0,38,0.00,,CLR,0.00,VWS V14.01,2013-11-20 22:31:00,
2013-11-20 17:36:00,42.1,18.9,30.33,NNE,22,0.0,0.0,39,0.00,,CLR,0.00,VWS V14.01,2013-11-20 22:36:00,
2013-11-20 17:41:00,41.5,19.0,30.33,NNE,22,0.0,0.0,40,0.00,,CLR,0.00,VWS V14.01,2013-11-20 22:41:00,
2013-11-20 17:46:00,41.0,18.5,30.33,NNE,22,0.0,0.0,40,0.00,,CLR,0.00,VWS V14.01,2013-11-20 22:46:00,
2013-11-20 17:51:00,40.6,18.8,30.33,NNE,22,0.0,0.0,41,0.00,,CLR,0.00,VWS V14.01,2013-11-20 22:51:00,
2013-11-20 17:56:00,40.6,19.4,30.36,NNE,22,0.0,0.0,42,0.00,,CLR,0.00,VWS V14.01,2013-11-20 22:56:00,
2013-11-20 18:01:00,40.5,19.7,30.36,NNE,22,0.0,0.0,43,0.00,,CLR,0.00,VWS V14.01,2013-11-20 23:01:00,
2013-11-20 18:06:00,40.1,19.4,30.36,NNE,22,0.0,0.0,43,0.00,,CLR,0.00,VWS V14.01,2013-11-20 23:06:00,
2013-11-20 18:11:00,40.1,20.0,30.36,NNE,22,0.0,0.0,44,0.00,,CLR,0.00,VWS V14.01,2013-11-20 23:11:00,
2013-11-20 18:16:00,39.6,19.5,30.36,NNE,22,0.0,0.0,44,0.00,,CLR,0.00,VWS V14.01,2013-11-20 23:16:00,
2013-11-20 18:21:00,39.0,19.5,30.36,NNE,22,0.0,0.0,45,0.00,,CLR,0.00,VWS V14.01,2013-11-20 23:21:00,
2013-11-20 18:26:00,38.8,19.3,30.36,NNE,22,0.0,0.0,45,0.00,,CLR,0.00,VWS V14.01,2013-11-20 23:26:00,
2013-11-20 18:32:00,38.1,18.7,30.36,NNE,22,0.0,0.0,45,0.00,,CLR,0.00,VWS V14.01,2013-11-20 23:32:00,
2013-11-20 18:37:00,37.9,20.0,30.36,NNE,22,0.0,0.0,48,0.00,,CLR,0.00,VWS V14.01,2013-11-20 23:37:00,
2013-11-20 18:42:00,37.6,20.2,30.36,NNE,22,0.0,0.0,49,0.00,,CLR,0.00,VWS V14.01,2013-11-20 23:42:00,
2013-11-20 18:47:00,37.0,20.1,30.36,NNE,22,0.0,0.0,50,0.00,,CLR,0.00,VWS V14.01,2013-11-20 23:47:00,
2013-11-20 18:52:00,36.9,20.0,30.36,NNE,22,0.0,0.0,50,0.00,,CLR,0.00,VWS V14.01,2013-11-20 23:52:00,
2013-11-20 18:57:00,36.5,20.1,30.36,NNE,22,0.0,0.0,51,0.00,,CLR,0.00,VWS V14.01,2013-11-20 23:57:00,
2013-11-20 19:02:00,36.3,20.4,30.36,NNE,22,0.0,0.0,52,0.00,,CLR,0.00,VWS V14.01,2013-11-21 00:02:00,
2013-11-20 19:07:00,36.0,20.5,30.36,NNE,22,0.0,0.0,53,0.00,,CLR,0.00,VWS V14.01,2013-11-21 00:07:00,
2013-11-20 19:12:00,35.6,21.0,30.36,NNE,22,0.0,0.0,55,0.00,,CLR,0.00,VWS V14.01,2013-11-21 00:12:00,
2013-11-20 19:17:00,35.6,21.0,30.36,NNE,22,0.0,0.0,55,0.00,,CLR,0.00,VWS V14.01,2013-11-21 00:17:00,
2013-11-20 19:22:00,35.4,22.1,30.36,NNE,22,0.0,0.0,58,0.00,,CLR,0.00,VWS V14.01,2013-11-21 00:22:00,
2013-11-20 19:27:00,35.1,22.2,30.39,NNE,22,0.0,0.0,59,0.00,,CLR,0.00,VWS V14.01,2013-11-21 00:27:00,
2013-11-20 19:32:00,35.1,23.0,30.39,NNE,22,0.0,0.0,61,0.00,,CLR,0.00,VWS V14.01,2013-11-21 00:32:00,
2013-11-20 19:37:00,34.7,23.0,30.39,NNE,22,0.0,0.0,62,0.00,,CLR,0.00,VWS V14.01,2013-11-21 00:37:00,
2013-11-20 19:42:00,34.7,24.1,30.36,NNE,22,0.0,0.0,65,0.00,,CLR,0.00,VWS V14.01,2013-11-21 00:42:00,
2013-11-20 19:47:00,34.5,24.4,30.36,NNE,22,0.0,0.0,66,0.00,,CLR,0.00,VWS V14.01,2013-11-21 00:47:00,
2013-11-20 19:52:00,34.3,24.5,30.36,NNE,22,0.0,0.0,67,0.00,,CLR,0.00,VWS V14.01,2013-11-21 00:52:00,
2013-11-20 19:57:00,34.5,25.1,30.39,NNE,22,0.0,0.0,68,0.00,,CLR,0.00,VWS V14.01,2013-11-21 00:57:00,
2013-11-20 20:03:00,34.5,25.4,30.39,NNE,22,0.0,0.0,69,0.00,,CLR,0.00,VWS V14.01,2013-11-21 01:03:00,
2013-11-20 20:08:00,34.7,25.6,30.39,NNE,22,0.0,0.0,69,0.00,,CLR,0.00,VWS V14.01,2013-11-21 01:08:00,
2013-11-20 20:13:00,34.5,26.1,30.39,NNE,22,0.0,0.0,71,0.00,,CLR,0.00,VWS V14.01,2013-11-21 01:13:00,
2013-11-20 20:18:00,34.0,25.9,30.39,NNE,22,0.0,0.0,72,0.00,,CLR,0.00,VWS V14.01,2013-11-21 01:18:00,
2013-11-20 20:23:00,34.0,25.9,30.39,NNE,22,0.0,0.0,72,0.00,,CLR,0.00,VWS V14.01,2013-11-21 01:23:00,
2013-11-20 20:28:00,34.9,27.1,30.39,NNE,22,0.0,0.0,73,0.00,,CLR,0.00,VWS V14.01,2013-11-21 01:28:00,
2013-11-20 20:33:00,35.1,27.0,30.39,NNE,22,0.0,0.0,72,0.00,,CLR,0.00,VWS V14.01,2013-11-21 01:33:00,
2013-11-20 20:38:00,34.9,26.5,30.39,NNE,22,0.0,0.0,71,0.00,,CLR,0.00,VWS V14.01,2013-11-21 01:38:00,
2013-11-20 20:43:00,35.1,26.6,30.39,NNE,22,0.0,0.0,71,0.00,,SCT055,0.00,VWS V14.01,2013-11-21 01:43:00,
2013-11-20 20:48:00,35.1,26.3,30.39,NNE,22,0.0,0.0,70,0.00,,SCT055,0.00,VWS V14.01,2013-11-21 01:48:00,
2013-11-20 20:53:00,35.1,25.9,30.39,NNE,22,0.0,0.0,69,0.00,,SCT055,0.00,VWS V14.01,2013-11-21 01:53:00,
2013-11-20 20:58:00,35.1,25.6,30.39,NNE,22,0.0,0.0,68,0.00,,SCT055,0.00,VWS V14.01,2013-11-21 01:58:00,
2013-11-20 21:03:00,34.9,25.0,30.39,NNE,22,0.0,0.0,67,0.00,,CLR,0.00,VWS V14.01,2013-11-21 02:03:00,
2013-11-20 21:08:00,35.1,24.9,30.39,NNE,22,0.0,0.0,66,0.00,,CLR,0.00,VWS V14.01,2013-11-21 02:08:00,
2013-11-20 21:13:00,35.2,24.7,30.39,NNE,22,0.0,0.0,65,0.00,,CLR,0.00,VWS V14.01,2013-11-21 02:13:00,
2013-11-20 21:18:00,35.2,24.7,30.39,NNE,22,0.0,0.0,65,0.00,,CLR,0.00,VWS V14.01,2013-11-21 02:18:00,
2013-11-20 21:23:00,35.6,24.3,30.39,NNE,22,0.0,0.0,63,0.00,,CLR,0.00,VWS V14.01,2013-11-21 02:23:00,
2013-11-20 21:28:00,35.8,24.0,30.41,NNE,22,0.0,0.0,62,0.00,,CLR,0.00,VWS V14.01,2013-11-21 02:28:00,
2013-11-20 21:33:00,35.8,23.7,30.41,NNE,22,0.0,0.0,61,0.00,,CLR,0.00,VWS V14.01,2013-11-21 02:33:00,
2013-11-20 21:38:00,36.0,23.8,30.41,NNE,22,0.0,0.0,61,0.00,,CLR,0.00,VWS V14.01,2013-11-21 02:38:00,
2013-11-20 21:43:00,36.1,23.6,30.41,NNE,22,0.0,0.0,60,0.00,,SCT040,0.00,VWS V14.01,2013-11-21 02:43:00,
2013-11-20 21:49:00,36.1,24.0,30.41,NNE,22,0.0,0.0,61,0.00,,SCT040,0.00,VWS V14.01,2013-11-21 02:49:00,
2013-11-20 21:54:00,36.1,24.0,30.41,NNE,22,0.0,0.0,61,0.00,,SCT040,0.00,VWS V14.01,2013-11-21 02:54:00,
2013-11-20 21:59:00,36.3,24.2,30.41,NNE,22,0.0,0.0,61,0.00,,SCT040,0.00,VWS V14.01,2013-11-21 02:59:00,
2013-11-20 22:04:00,36.7,24.1,30.41,NNE,22,0.0,0.0,60,0.00,,BKN040,0.00,VWS V14.01,2013-11-21 03:04:00,
2013-11-20 22:09:00,36.9,23.5,30.41,NNE,22,0.0,0.0,58,0.00,,BKN040,0.00,VWS V14.01,2013-11-21 03:09:00,
2013-11-20 22:14:00,37.2,24.2,30.41,NNE,22,0.0,0.0,59,0.00,,BKN040,0.00,VWS V14.01,2013-11-21 03:14:00,
2013-11-20 22:19:00,37.4,24.4,30.41,NNE,22,0.0,0.0,59,0.00,,BKN040,0.00,VWS V14.01,2013-11-21 03:19:00,
2013-11-20 22:24:00,37.2,23.8,30.41,NNE,22,0.0,0.0,58,0.00,,OVC040,0.00,VWS V14.01,2013-11-21 03:24:00,
2013-11-20 22:29:00,37.0,23.2,30.41,NNE,22,0.0,0.0,57,0.00,,OVC040,0.00,VWS V14.01,2013-11-21 03:29:00,
2013-11-20 22:34:00,36.9,22.6,30.41,NNE,22,0.0,0.0,56,0.00,,OVC040,0.00,VWS V14.01,2013-11-21 03:34:00,
2013-11-20 22:39:00,37.0,22.4,30.41,NNE,22,0.0,0.0,55,0.00,,OVC040,0.00,VWS V14.01,2013-11-21 03:39:00,
2013-11-20 22:44:00,36.9,22.2,30.41,NNE,22,0.0,0.0,55,0.00,,SCT038,0.00,VWS V14.01,2013-11-21 03:44:00,
2013-11-20 22:49:00,36.9,22.6,30.41,NNE,22,0.0,0.0,56,0.00,,SCT038,0.00,VWS V14.01,2013-11-21 03:49:00,
2013-11-20 22:54:00,36.7,22.9,30.41,NNE,22,0.0,0.0,57,0.00,,SCT038,0.00,VWS V14.01,2013-11-21 03:54:00,
2013-11-20 22:59:00,36.9,23.1,30.41,NNE,22,0.0,0.0,57,0.00,,SCT038,0.00,VWS V14.01,2013-11-21 03:59:00,
2013-11-20 23:04:00,37.0,22.8,30.41,NNE,22,0.0,0.0,56,0.00,,SCT060,0.00,VWS V14.01,2013-11-21 04:04:00,
2013-11-20 23:10:00,37.2,22.6,30.41,NNE,22,0.0,0.0,55,0.00,,SCT060,0.00,VWS V14.01,2013-11-21 04:10:00,
2013-11-20 23:15:00,37.8,22.2,30.41,NNE,22,0.0,0.0,53,0.00,,SCT060,0.00,VWS V14.01,2013-11-21 04:15:00,
2013-11-20 23:20:00,37.4,21.9,30.41,NNE,22,0.0,0.0,53,0.00,,BKN060,0.00,VWS V14.01,2013-11-21 04:20:00,
2013-11-20 23:25:00,37.9,22.4,30.41,WNW,292,4.0,4.0,53,0.00,,BKN060,0.00,VWS V14.01,2013-11-21 04:25:00,
2013-11-20 23:30:00,37.9,21.9,30.41,WNW,292,0.0,0.0,52,0.00,,BKN060,0.00,VWS V14.01,2013-11-21 04:30:00,
2013-11-20 23:35:00,37.9,21.9,30.41,WNW,292,0.0,0.0,52,0.00,,BKN060,0.00,VWS V14.01,2013-11-21 04:35:00,
2013-11-20 23:40:00,37.9,21.9,30.44,WNW,292,0.0,0.0,52,0.00,,OVC049,0.00,VWS V14.01,2013-11-21 04:40:00,
2013-11-20 23:45:00,38.1,22.5,30.44,WNW,292,0.0,0.0,53,0.00,,OVC049,0.00,VWS V14.01,2013-11-21 04:45:00,
2013-11-20 23:50:00,38.3,23.1,30.44,WNW,292,0.0,0.0,54,0.00,,OVC049,0.00,VWS V14.01,2013-11-21 04:50:00,
2013-11-20 23:55:00,38.7,23.5,30.41,WNW,292,2.2,2.2,54,0.00,,OVC049,0.00,VWS V14.01,2013-11-21 04:55:00,